CDT,Max TemperatureF,Mean TemperatureF,Min TemperatureF,Max Dew PointF,MeanDew PointF,Min DewpointF,Max Humidity, Mean Humidity, Min Humidity, Max Sea Level PressureIn, Mean Sea Level PressureIn, Min Sea Level PressureIn, Max VisibilityMiles, Mean VisibilityMiles, Min VisibilityMiles, Max Wind SpeedMPH, Mean Wind SpeedMPH, Max Gust SpeedMPH,PrecipitationIn, CloudCover, Events, WindDirDegrees
2013-9-1,87,74,60,72,59,48,87,57,27,30.04,29.95,29.79,10,10,10,18,9,24,0.00,1,Thunderstorm,358
2013-9-2,84,70,55,62,58,54,93,68,43,30.12,30.06,30.02,10,10,10,9,3,13,0.00,0,,119
2013-9-3,89,75,61,62,60,57,97,68,39,30.07,30.02,29.99,10,10,6,17,10,21,0.00,0,,165
2013-9-4,86,76,65,65,61,55,73,59,44,30.22,30.09,30.00,10,9,1,17,10,24,0.79,3,Rain-Thunderstorm,163
2013-9-5,86,76,66,68,64,60,81,66,51,30.15,30.09,30.06,10,10,10,18,11,24,T,2,,145
2013-9-6,96,83,69,66,63,61,78,55,31,30.05,29.95,29.85,10,10,10,17,12,23,0.00,0,,175
2013-9-7,91,80,68,71,66,59,93,72,50,29.91,29.89,29.86,10,10,6,14,7,18,0.00,0,,21
2013-9-8,95,81,66,72,68,63,100,73,46,29.95,29.87,29.75,10,5,0,16,5,24,0.00,1,Fog,90
2013-9-9,99,86,73,60,57,50,58,39,20,29.81,29.76,29.73,10,10,10,24,14,32,0.00,0,,195
2013-9-10,90,76,62,67,62,57,90,67,43,30.05,29.92,29.81,10,10,10,13,5,16,0.01,1,Rain,26
2013-9-11,73,69,64,68,65,62,100,90,79,30.18,30.11,30.05,10,9,2,12,4,15,0.54,4,Rain-Thunderstorm,36
2013-9-12,82,70,58,67,59,50,100,68,35,30.24,30.19,30.14,10,9,4,15,6,20,0.00,2,,48
2013-9-13,77,64,50,54,50,46,93,65,36,30.24,30.16,30.05,10,10,10,13,5,18,0.00,1,,137
2013-9-14,76,67,58,63,54,50,81,67,53,30.04,29.95,29.85,10,10,10,20,10,25,T,4,Rain,172
2013-9-15,71,65,58,66,59,54,93,76,59,30.27,30.05,29.84,10,10,2,18,11,25,0.17,7,Rain-Thunderstorm,17
2013-9-16,63,60,57,56,54,51,93,80,67,30.32,30.24,30.18,10,9,2,14,7,17,0.16,8,Rain,100
2013-9-17,74,66,57,68,61,57,100,90,79,30.16,30.00,29.80,10,6,2,17,10,22,0.05,7,Rain,159
2013-9-18,91,80,68,68,66,64,93,69,44,29.80,29.70,29.62,10,10,9,22,14,28,0.00,0,,184
2013-9-19,78,65,51,63,58,48,93,69,44,30.08,29.84,29.65,10,10,9,31,11,39,0.07,4,Rain-Thunderstorm,329
2013-9-20,74,61,47,50,45,42,93,64,35,30.14,30.08,30.00,10,10,10,23,9,28,0.00,0,,319
2013-9-21,84,66,48,52,48,43,93,58,23,30.04,29.92,29.81,10,10,10,20,9,24,0.00,0,,183
2013-9-22,83,70,56,51,49,48,77,54,31,29.82,29.77,29.70,10,10,10,26,16,35,0.00,0,,167
2013-9-23,78,67,55,56,50,48,78,60,41,29.73,29.66,29.59,10,10,9,28,14,38,T,4,Rain,152
2013-9-24,74,63,51,56,55,52,100,77,53,29.96,29.87,29.65,10,10,10,23,10,26,0.00,5,,345
2013-9-25,80,63,46,57,51,46,100,70,39,29.94,29.86,29.66,10,4,0,23,12,31,0.00,1,Fog,145
2013-9-26,91,77,63,61,56,54,78,54,29,29.68,29.64,29.60,10,10,10,26,18,35,0.00,0,,156
2013-9-27,91,73,54,61,58,55,87,61,34,29.75,29.68,29.62,10,10,10,31,17,37,0.12,2,Rain-Thunderstorm,169
2013-9-28,69,59,48,57,46,36,100,65,30,30.07,29.90,29.71,10,9,4,24,12,32,0.47,4,Rain,304
2013-9-29,79,64,49,45,42,40,77,51,25,30.07,29.96,29.84,10,10,10,24,13,30,0.00,0,,200
2013-9-30,84,70,56,52,48,44,72,50,28,29.83,29.75,29.67,10,10,10,20,12,24,0.00,0,,194